sensor_id;sensor_type;location;lat;lon;timestamp;pressure;altitude;pressure_sealevel;temperature;humidity
34235;BME280;20500;49.856;20.290;2023-10-08T00:00:04;98500.04;;;16.32;74.83
34235;BME280;20500;49.856;20.290;2023-10-08T00:03:29;98496.88;;;16.35;74.88
34235;BME280;20500;49.856;20.290;2023-10-08T00:06:35;98492.29;;;16.38;74.78
34235;BME280;20500;49.856;20.290;2023-10-08T00:09:40;98487.32;;;16.39;74.73
34235;BME280;20500;49.856;20.290;2023-10-08T00:12:44;98486.08;;;16.41;74.72
34235;BME280;20500;49.856;20.290;2023-10-08T00:15:50;98486.38;;;16.43;74.66
34235;BME280;20500;49.856;20.290;2023-10-08T00:18:56;98482.66;;;16.45;74.61
34235;BME280;20500;49.856;20.290;2023-10-08T00:22:10;98475.66;;;16.47;74.63
34235;BME280;20500;49.856;20.290;2023-10-08T00:25:16;98476.98;;;16.49;74.63
34235;BME280;20500;49.856;20.290;2023-10-08T00:28:20;98482.58;;;16.51;74.40
34235;BME280;20500;49.856;20.290;2023-10-08T00:31:24;98483.12;;;16.52;74.38
34235;BME280;20500;49.856;20.290;2023-10-08T00:34:33;98484.52;;;16.53;74.31
34235;BME280;20500;49.856;20.290;2023-10-08T00:37:40;98486.78;;;16.55;74.33
34235;BME280;20500;49.856;20.290;2023-10-08T00:40:44;98487.11;;;16.56;74.27
34235;BME280;20500;49.856;20.290;2023-10-08T00:43:48;98489.13;;;16.57;74.19
34235;BME280;20500;49.856;20.290;2023-10-08T00:46:54;98495.57;;;16.58;74.12
34235;BME280;20500;49.856;20.290;2023-10-08T00:49:58;98500.69;;;16.58;74.30
34235;BME280;20500;49.856;20.290;2023-10-08T00:53:11;98510.13;;;16.57;74.16
34235;BME280;20500;49.856;20.290;2023-10-08T00:56:25;98512.22;;;16.56;74.20
34235;BME280;20500;49.856;20.290;2023-10-08T00:59:33;98517.03;;;16.53;74.16
34235;BME280;20500;49.856;20.290;2023-10-08T01:02:45;98513.42;;;16.49;74.11
34235;BME280;20500;49.856;20.290;2023-10-08T01:05:52;98516.16;;;16.33;74.21
34235;BME280;20500;49.856;20.290;2023-10-08T01:08:56;98508.59;;;16.09;74.53
34235;BME280;20500;49.856;20.290;2023-10-08T01:12:14;98504.05;;;15.90;74.68
34235;BME280;20500;49.856;20.290;2023-10-08T01:15:22;98504.64;;;15.72;74.98
34235;BME280;20500;49.856;20.290;2023-10-08T01:18:32;98510.55;;;15.57;75.19
34235;BME280;20500;49.856;20.290;2023-10-08T01:21:38;98511.42;;;15.43;75.30
34235;BME280;20500;49.856;20.290;2023-10-08T01:24:42;98513.54;;;15.31;75.27
34235;BME280;20500;49.856;20.290;2023-10-08T01:27:47;98520.39;;;15.21;75.33
34235;BME280;20500;49.856;20.290;2023-10-08T01:30:51;98524.88;;;15.04;75.39
34235;BME280;20500;49.856;20.290;2023-10-08T01:33:56;98522.95;;;14.88;75.34
34235;BME280;20500;49.856;20.290;2023-10-08T01:37:00;98525.71;;;14.74;75.55
34235;BME280;20500;49.856;20.290;2023-10-08T01:40:12;98523.91;;;14.60;75.55
34235;BME280;20500;49.856;20.290;2023-10-08T01:43:16;98518.34;;;14.47;75.53
34235;BME280;20500;49.856;20.290;2023-10-08T01:46:20;98528.70;;;14.29;75.70
34235;BME280;20500;49.856;20.290;2023-10-08T01:49:25;98530.40;;;14.14;75.82
34235;BME280;20500;49.856;20.290;2023-10-08T01:52:35;98539.22;;;13.98;75.86
34235;BME280;20500;49.856;20.290;2023-10-08T01:55:39;98539.60;;;13.86;76.12
34235;BME280;20500;49.856;20.290;2023-10-08T01:58:51;98547.31;;;13.71;76.22
34235;BME280;20500;49.856;20.290;2023-10-08T02:01:55;98556.45;;;13.54;76.08
34235;BME280;20500;49.856;20.290;2023-10-08T02:05:00;98576.16;;;13.38;76.09
34235;BME280;20500;49.856;20.290;2023-10-08T02:08:04;98571.57;;;13.14;75.81
34235;BME280;20500;49.856;20.290;2023-10-08T02:11:09;98565.27;;;12.85;75.81
34235;BME280;20500;49.856;20.290;2023-10-08T02:14:13;98576.77;;;12.58;75.68
34235;BME280;20500;49.856;20.290;2023-10-08T02:17:18;98577.14;;;12.33;76.07
34235;BME280;20500;49.856;20.290;2023-10-08T02:20:22;98577.99;;;12.16;76.38
34235;BME280;20500;49.856;20.290;2023-10-08T02:23:26;98580.90;;;12.07;76.78
34235;BME280;20500;49.856;20.290;2023-10-08T02:26:31;98576.82;;;12.03;77.01
34235;BME280;20500;49.856;20.290;2023-10-08T02:29:37;98579.64;;;12.05;77.21
34235;BME280;20500;49.856;20.290;2023-10-08T02:32:42;98584.84;;;12.05;77.33
34235;BME280;20500;49.856;20.290;2023-10-08T02:35:46;98595.04;;;12.04;77.04
34235;BME280;20500;49.856;20.290;2023-10-08T02:38:52;98614.23;;;11.92;76.90
34235;BME280;20500;49.856;20.290;2023-10-08T02:41:57;98612.88;;;11.79;77.02
34235;BME280;20500;49.856;20.290;2023-10-08T02:45:03;98606.38;;;11.73;77.20
34235;BME280;20500;49.856;20.290;2023-10-08T02:48:08;98610.30;;;11.69;77.40
34235;BME280;20500;49.856;20.290;2023-10-08T02:51:15;98620.73;;;11.62;77.23
34235;BME280;20500;49.856;20.290;2023-10-08T02:54:19;98622.55;;;11.56;77.44
34235;BME280;20500;49.856;20.290;2023-10-08T02:57:26;98638.55;;;11.52;77.45
34235;BME280;20500;49.856;20.290;2023-10-08T03:00:32;98642.64;;;11.50;77.61
34235;BME280;20500;49.856;20.290;2023-10-08T03:03:37;98640.99;;;11.43;77.51
34235;BME280;20500;49.856;20.290;2023-10-08T03:06:41;98646.63;;;11.35;77.53
34235;BME280;20500;49.856;20.290;2023-10-08T03:09:45;98639.23;;;11.23;77.51
34235;BME280;20500;49.856;20.290;2023-10-08T03:12:52;98638.65;;;11.12;77.56
34235;BME280;20500;49.856;20.290;2023-10-08T03:15:56;98640.89;;;11.01;77.80
34235;BME280;20500;49.856;20.290;2023-10-08T03:19:11;98637.70;;;10.95;77.95
34235;BME280;20500;49.856;20.290;2023-10-08T03:22:21;98638.27;;;10.93;78.17
34235;BME280;20500;49.856;20.290;2023-10-08T03:25:33;98649.61;;;10.91;78.29
34235;BME280;20500;49.856;20.290;2023-10-08T03:28:44;98664.95;;;10.91;78.38
34235;BME280;20500;49.856;20.290;2023-10-08T03:31:48;98658.49;;;10.97;78.70
34235;BME280;20500;49.856;20.290;2023-10-08T03:34:53;98652.52;;;11.09;78.87
34235;BME280;20500;49.856;20.290;2023-10-08T03:37:58;98642.18;;;11.20;78.85
34235;BME280;20500;49.856;20.290;2023-10-08T03:41:25;98645.38;;;11.31;78.80
34235;BME280;20500;49.856;20.290;2023-10-08T03:44:32;98649.04;;;11.37;78.79
34235;BME280;20500;49.856;20.290;2023-10-08T03:47:40;98653.08;;;11.38;78.62
34235;BME280;20500;49.856;20.290;2023-10-08T03:50:49;98649.23;;;11.37;78.61
34235;BME280;20500;49.856;20.290;2023-10-08T03:53:59;98651.25;;;11.37;78.69
34235;BME280;20500;49.856;20.290;2023-10-08T03:57:18;98665.42;;;11.41;78.91
34235;BME280;20500;49.856;20.290;2023-10-08T04:00:28;98675.14;;;11.46;78.97
34235;BME280;20500;49.856;20.290;2023-10-08T04:03:34;98672.58;;;11.44;78.75
34235;BME280;20500;49.856;20.290;2023-10-08T04:07:00;98681.10;;;11.41;78.55
34235;BME280;20500;49.856;20.290;2023-10-08T04:10:18;98702.66;;;11.27;78.52
34235;BME280;20500;49.856;20.290;2023-10-08T04:13:52;98736.46;;;11.08;78.69
34235;BME280;20500;49.856;20.290;2023-10-08T04:16:56;98753.61;;;10.97;78.63
34235;BME280;20500;49.856;20.290;2023-10-08T04:20:02;98763.31;;;10.85;78.40
34235;BME280;20500;49.856;20.290;2023-10-08T04:23:21;98758.56;;;10.69;78.41
34235;BME280;20500;49.856;20.290;2023-10-08T04:26:25;98759.98;;;10.61;78.71
34235;BME280;20500;49.856;20.290;2023-10-08T04:29:29;98766.38;;;10.55;78.56
34235;BME280;20500;49.856;20.290;2023-10-08T04:32:35;98781.19;;;10.48;78.60
34235;BME280;20500;49.856;20.290;2023-10-08T04:35:40;98780.61;;;10.41;78.59
34235;BME280;20500;49.856;20.290;2023-10-08T04:38:51;98781.93;;;10.33;78.65
34235;BME280;20500;49.856;20.290;2023-10-08T04:41:57;98784.52;;;10.31;78.72
34235;BME280;20500;49.856;20.290;2023-10-08T04:45:09;98796.73;;;10.28;78.82
34235;BME280;20500;49.856;20.290;2023-10-08T04:48:16;98819.17;;;10.33;78.93
34235;BME280;20500;49.856;20.290;2023-10-08T04:51:24;98823.79;;;10.38;78.85
34235;BME280;20500;49.856;20.290;2023-10-08T04:54:28;98831.09;;;10.42;78.93
34235;BME280;20500;49.856;20.290;2023-10-08T04:57:33;98836.45;;;10.45;79.06
34235;BME280;20500;49.856;20.290;2023-10-08T05:00:37;98842.99;;;10.51;79.22
34235;BME280;20500;49.856;20.290;2023-10-08T05:03:56;98840.42;;;10.56;79.30
34235;BME280;20500;49.856;20.290;2023-10-08T05:07:28;98850.38;;;10.55;79.17
34235;BME280;20500;49.856;20.290;2023-10-08T05:11:03;98863.27;;;10.55;79.35
34235;BME280;20500;49.856;20.290;2023-10-08T05:14:24;98864.52;;;10.58;79.45
34235;BME280;20500;49.856;20.290;2023-10-08T05:17:37;98865.80;;;10.62;79.42
34235;BME280;20500;49.856;20.290;2023-10-08T05:20:59;98870.88;;;10.65;79.48
34235;BME280;20500;49.856;20.290;2023-10-08T05:24:07;98881.73;;;10.67;79.48
34235;BME280;20500;49.856;20.290;2023-10-08T05:27:16;98892.88;;;10.66;79.45
34235;BME280;20500;49.856;20.290;2023-10-08T05:30:40;98903.89;;;10.67;79.58
34235;BME280;20500;49.856;20.290;2023-10-08T05:33:56;98914.78;;;10.68;79.48
34235;BME280;20500;49.856;20.290;2023-10-08T05:37:18;98927.81;;;10.69;79.50
34235;BME280;20500;49.856;20.290;2023-10-08T05:40:44;98929.66;;;10.70;79.57
34235;BME280;20500;49.856;20.290;2023-10-08T05:44:07;98924.89;;;10.67;79.62
34235;BME280;20500;49.856;20.290;2023-10-08T05:47:27;98928.58;;;10.65;79.54
34235;BME280;20500;49.856;20.290;2023-10-08T05:50:44;98919.16;;;10.65;79.66
34235;BME280;20500;49.856;20.290;2023-10-08T05:54:16;98932.90;;;10.66;79.93
34235;BME280;20500;49.856;20.290;2023-10-08T05:57:39;98938.81;;;10.69;79.84
34235;BME280;20500;49.856;20.290;2023-10-08T06:00:49;98950.36;;;10.68;79.70
34235;BME280;20500;49.856;20.290;2023-10-08T06:04:10;98967.59;;;10.68;79.92
34235;BME280;20500;49.856;20.290;2023-10-08T06:07:31;98973.73;;;10.71;79.79
34235;BME280;20500;49.856;20.290;2023-10-08T06:10:50;98985.76;;;10.71;79.75
34235;BME280;20500;49.856;20.290;2023-10-08T06:14:04;99003.63;;;10.72;79.84
34235;BME280;20500;49.856;20.290;2023-10-08T06:17:16;99014.21;;;10.74;79.97
34235;BME280;20500;49.856;20.290;2023-10-08T06:20:37;99012.63;;;10.80;80.01
34235;BME280;20500;49.856;20.290;2023-10-08T06:23:46;99026.10;;;10.82;79.88
34235;BME280;20500;49.856;20.290;2023-10-08T06:26:50;99043.65;;;10.82;79.94
34235;BME280;20500;49.856;20.290;2023-10-08T06:29:54;99038.48;;;10.81;79.76
34235;BME280;20500;49.856;20.290;2023-10-08T06:32:58;99034.58;;;10.74;79.85
34235;BME280;20500;49.856;20.290;2023-10-08T06:36:04;99034.15;;;10.73;79.92
34235;BME280;20500;49.856;20.290;2023-10-08T06:39:16;99039.29;;;10.76;80.00
34235;BME280;20500;49.856;20.290;2023-10-08T06:42:22;99038.52;;;10.78;79.96
34235;BME280;20500;49.856;20.290;2023-10-08T06:45:30;99050.06;;;10.77;79.83
34235;BME280;20500;49.856;20.290;2023-10-08T06:48:35;99065.52;;;10.73;79.75
34235;BME280;20500;49.856;20.290;2023-10-08T06:51:40;99081.38;;;10.73;79.90
34235;BME280;20500;49.856;20.290;2023-10-08T06:54:46;99080.72;;;10.74;80.15
34235;BME280;20500;49.856;20.290;2023-10-08T06:57:50;99081.92;;;10.73;80.03
34235;BME280;20500;49.856;20.290;2023-10-08T07:00:54;99088.58;;;10.70;80.08
34235;BME280;20500;49.856;20.290;2023-10-08T07:04:01;99089.16;;;10.70;80.03
34235;BME280;20500;49.856;20.290;2023-10-08T07:07:07;99088.33;;;10.71;80.13
34235;BME280;20500;49.856;20.290;2023-10-08T07:10:12;99093.45;;;10.73;80.17
34235;BME280;20500;49.856;20.290;2023-10-08T07:13:16;99099.92;;;10.73;80.08
34235;BME280;20500;49.856;20.290;2023-10-08T07:16:22;99109.29;;;10.77;80.13
34235;BME280;20500;49.856;20.290;2023-10-08T07:19:26;99108.95;;;10.80;80.23
34235;BME280;20500;49.856;20.290;2023-10-08T07:22:35;99113.38;;;10.80;80.23
34235;BME280;20500;49.856;20.290;2023-10-08T07:25:41;99118.77;;;10.84;80.13
34235;BME280;20500;49.856;20.290;2023-10-08T07:28:50;99120.98;;;10.85;80.17
34235;BME280;20500;49.856;20.290;2023-10-08T07:31:54;99111.52;;;10.87;80.31
34235;BME280;20500;49.856;20.290;2023-10-08T07:34:58;99097.63;;;10.88;80.30
34235;BME280;20500;49.856;20.290;2023-10-08T07:38:18;99104.04;;;10.90;80.31
34235;BME280;20500;49.856;20.290;2023-10-08T07:41:24;99121.41;;;10.97;80.47
34235;BME280;20500;49.856;20.290;2023-10-08T07:44:28;99126.07;;;10.99;80.44
34235;BME280;20500;49.856;20.290;2023-10-08T07:47:36;99131.48;;;10.97;80.40
34235;BME280;20500;49.856;20.290;2023-10-08T07:50:44;99131.91;;;11.03;80.40
34235;BME280;20500;49.856;20.290;2023-10-08T07:53:49;99127.55;;;11.05;80.27
34235;BME280;20500;49.856;20.290;2023-10-08T07:56:57;99137.77;;;11.06;80.31
34235;BME280;20500;49.856;20.290;2023-10-08T08:00:13;99142.52;;;11.08;80.44
34235;BME280;20500;49.856;20.290;2023-10-08T08:03:26;99145.24;;;11.10;80.41
34235;BME280;20500;49.856;20.290;2023-10-08T08:06:30;99140.88;;;11.10;80.29
34235;BME280;20500;49.856;20.290;2023-10-08T08:09:36;99144.41;;;11.11;80.34
34235;BME280;20500;49.856;20.290;2023-10-08T08:12:41;99150.30;;;11.11;80.52
34235;BME280;20500;49.856;20.290;2023-10-08T08:15:45;99148.10;;;11.18;80.56
34235;BME280;20500;49.856;20.290;2023-10-08T08:18:54;99150.55;;;11.26;80.54
34235;BME280;20500;49.856;20.290;2023-10-08T08:21:59;99151.64;;;11.34;80.70
34235;BME280;20500;49.856;20.290;2023-10-08T08:25:06;99151.30;;;11.40;80.71
34235;BME280;20500;49.856;20.290;2023-10-08T08:28:18;99155.16;;;11.48;80.90
34235;BME280;20500;49.856;20.290;2023-10-08T08:31:23;99160.29;;;11.57;80.86
34235;BME280;20500;49.856;20.290;2023-10-08T08:34:28;99167.75;;;11.61;80.68
34235;BME280;20500;49.856;20.290;2023-10-08T08:37:34;99177.67;;;11.66;80.58
34235;BME280;20500;49.856;20.290;2023-10-08T08:40:38;99180.03;;;11.69;80.22
34235;BME280;20500;49.856;20.290;2023-10-08T08:43:43;99183.52;;;11.64;80.37
34235;BME280;20500;49.856;20.290;2023-10-08T08:46:48;99191.14;;;11.66;80.50
34235;BME280;20500;49.856;20.290;2023-10-08T08:49:53;99190.51;;;11.65;80.35
34235;BME280;20500;49.856;20.290;2023-10-08T08:52:59;99188.27;;;11.67;80.32
34235;BME280;20500;49.856;20.290;2023-10-08T08:56:03;99184.69;;;11.64;80.07
34235;BME280;20500;49.856;20.290;2023-10-08T08:59:09;99183.34;;;11.63;80.38
34235;BME280;20500;49.856;20.290;2023-10-08T09:02:14;99185.45;;;11.66;80.23
34235;BME280;20500;49.856;20.290;2023-10-08T09:05:20;99187.08;;;11.68;80.14
34235;BME280;20500;49.856;20.290;2023-10-08T09:08:38;99183.70;;;11.74;80.43
34235;BME280;20500;49.856;20.290;2023-10-08T09:11:45;99190.89;;;11.82;80.42
34235;BME280;20500;49.856;20.290;2023-10-08T09:14:49;99197.36;;;11.87;80.34
34235;BME280;20500;49.856;20.290;2023-10-08T09:17:53;99201.39;;;11.84;79.74
34235;BME280;20500;49.856;20.290;2023-10-08T09:21:08;99200.98;;;11.74;79.81
34235;BME280;20500;49.856;20.290;2023-10-08T09:24:17;99208.86;;;11.73;80.09
34235;BME280;20500;49.856;20.290;2023-10-08T09:27:22;99205.70;;;11.84;80.38
34235;BME280;20500;49.856;20.290;2023-10-08T09:30:29;99210.33;;;11.93;80.28
34235;BME280;20500;49.856;20.290;2023-10-08T09:33:34;99223.71;;;12.01;80.36
34235;BME280;20500;49.856;20.290;2023-10-08T09:36:38;99221.45;;;12.07;80.15
34235;BME280;20500;49.856;20.290;2023-10-08T09:39:45;99220.48;;;12.09;80.00
34235;BME280;20500;49.856;20.290;2023-10-08T09:42:49;99220.79;;;12.10;79.54
34235;BME280;20500;49.856;20.290;2023-10-08T09:45:55;99221.15;;;12.04;79.17
34235;BME280;20500;49.856;20.290;2023-10-08T09:49:00;99229.02;;;12.02;78.96
34235;BME280;20500;49.856;20.290;2023-10-08T09:52:09;99236.31;;;11.93;78.07
34235;BME280;20500;49.856;20.290;2023-10-08T09:55:15;99240.43;;;11.80;78.12
34235;BME280;20500;49.856;20.290;2023-10-08T09:58:23;99235.75;;;11.82;78.39
34235;BME280;20500;49.856;20.290;2023-10-08T10:01:28;99244.35;;;11.82;77.85
34235;BME280;20500;49.856;20.290;2023-10-08T10:04:35;99247.01;;;11.70;77.57
34235;BME280;20500;49.856;20.290;2023-10-08T10:07:39;99246.23;;;11.74;77.50
34235;BME280;20500;49.856;20.290;2023-10-08T10:10:46;99248.25;;;11.80;77.29
34235;BME280;20500;49.856;20.290;2023-10-08T10:13:57;99249.02;;;11.87;77.12
34235;BME280;20500;49.856;20.290;2023-10-08T10:17:14;99252.80;;;11.98;76.93
34235;BME280;20500;49.856;20.290;2023-10-08T10:20:45;99261.86;;;12.05;76.54
34235;BME280;20500;49.856;20.290;2023-10-08T10:23:49;99266.35;;;12.12;76.21
34235;BME280;20500;49.856;20.290;2023-10-08T10:27:06;99268.84;;;12.15;76.10
34235;BME280;20500;49.856;20.290;2023-10-08T10:30:13;99268.38;;;12.24;75.97
34235;BME280;20500;49.856;20.290;2023-10-08T10:33:30;99275.03;;;12.36;75.11
34235;BME280;20500;49.856;20.290;2023-10-08T10:36:36;99280.45;;;12.47;74.68
34235;BME280;20500;49.856;20.290;2023-10-08T10:39:42;99277.06;;;12.59;74.45
34235;BME280;20500;49.856;20.290;2023-10-08T10:42:49;99282.33;;;12.70;74.03
34235;BME280;20500;49.856;20.290;2023-10-08T10:45:57;99287.14;;;12.78;73.55
34235;BME280;20500;49.856;20.290;2023-10-08T10:49:01;99289.89;;;12.82;73.38
34235;BME280;20500;49.856;20.290;2023-10-08T10:52:21;99297.20;;;12.86;72.90
34235;BME280;20500;49.856;20.290;2023-10-08T10:55:47;99301.38;;;12.98;72.22
34235;BME280;20500;49.856;20.290;2023-10-08T10:59:02;99299.31;;;12.94;72.10
34235;BME280;20500;49.856;20.290;2023-10-08T11:02:09;99297.38;;;12.95;71.67
34235;BME280;20500;49.856;20.290;2023-10-08T11:05:24;99298.12;;;12.93;71.44
34235;BME280;20500;49.856;20.290;2023-10-08T11:08:31;99295.11;;;12.99;71.32
34235;BME280;20500;49.856;20.290;2023-10-08T11:11:38;99294.13;;;13.08;71.44
34235;BME280;20500;49.856;20.290;2023-10-08T11:14:47;99296.70;;;13.12;70.97
34235;BME280;20500;49.856;20.290;2023-10-08T11:17:51;99302.31;;;13.14;70.70
34235;BME280;20500;49.856;20.290;2023-10-08T11:21:06;99305.59;;;13.16;70.51
34235;BME280;20500;49.856;20.290;2023-10-08T11:24:27;99309.83;;;13.02;69.74
34235;BME280;20500;49.856;20.290;2023-10-08T11:27:32;99313.34;;;13.00;69.94
34235;BME280;20500;49.856;20.290;2023-10-08T11:30:40;99313.27;;;13.05;69.11
34235;BME280;20500;49.856;20.290;2023-10-08T11:33:45;99315.33;;;13.12;69.64
34235;BME280;20500;49.856;20.290;2023-10-08T11:36:57;99319.64;;;13.14;68.62
34235;BME280;20500;49.856;20.290;2023-10-08T11:40:01;99319.58;;;13.05;68.09
34235;BME280;20500;49.856;20.290;2023-10-08T11:43:16;99322.42;;;13.07;68.31
34235;BME280;20500;49.856;20.290;2023-10-08T11:46:19;99322.61;;;13.09;67.90
34235;BME280;20500;49.856;20.290;2023-10-08T11:49:24;99323.63;;;13.23;67.89
34235;BME280;20500;49.856;20.290;2023-10-08T11:52:28;99324.91;;;13.39;67.89
34235;BME280;20500;49.856;20.290;2023-10-08T11:55:34;99324.73;;;13.50;67.28
34235;BME280;20500;49.856;20.290;2023-10-08T11:58:41;99335.71;;;13.57;67.13
34235;BME280;20500;49.856;20.290;2023-10-08T12:01:47;99338.19;;;13.56;66.86
34235;BME280;20500;49.856;20.290;2023-10-08T12:04:51;99341.95;;;13.62;66.44
34235;BME280;20500;49.856;20.290;2023-10-08T12:07:55;99344.52;;;13.80;65.79
34235;BME280;20500;49.856;20.290;2023-10-08T12:11:01;99353.23;;;13.90;65.54
34235;BME280;20500;49.856;20.290;2023-10-08T12:14:05;99356.34;;;13.98;64.99
34235;BME280;20500;49.856;20.290;2023-10-08T12:17:09;99362.74;;;13.98;64.58
34235;BME280;20500;49.856;20.290;2023-10-08T12:20:15;99368.55;;;13.96;64.36
34235;BME280;20500;49.856;20.290;2023-10-08T12:23:26;99370.05;;;13.95;64.27
34235;BME280;20500;49.856;20.290;2023-10-08T12:26:32;99365.97;;;13.96;64.06
34235;BME280;20500;49.856;20.290;2023-10-08T12:29:36;99367.19;;;13.92;63.37
34235;BME280;20500;49.856;20.290;2023-10-08T12:32:41;99369.20;;;13.89;63.28
34235;BME280;20500;49.856;20.290;2023-10-08T12:35:49;99369.84;;;13.78;63.22
34235;BME280;20500;49.856;20.290;2023-10-08T12:38:56;99370.80;;;13.68;62.88
34235;BME280;20500;49.856;20.290;2023-10-08T12:42:01;99368.73;;;13.64;62.56
34235;BME280;20500;49.856;20.290;2023-10-08T12:45:08;99372.59;;;13.47;62.40
34235;BME280;20500;49.856;20.290;2023-10-08T12:48:15;99367.38;;;13.41;62.37
34235;BME280;20500;49.856;20.290;2023-10-08T12:51:20;99368.36;;;13.31;61.64
34235;BME280;20500;49.856;20.290;2023-10-08T12:54:27;99375.55;;;13.18;61.48
34235;BME280;20500;49.856;20.290;2023-10-08T12:57:36;99370.66;;;13.23;61.20
34235;BME280;20500;49.856;20.290;2023-10-08T13:00:40;99377.86;;;13.17;61.01
34235;BME280;20500;49.856;20.290;2023-10-08T13:03:45;99384.67;;;12.99;60.48
34235;BME280;20500;49.856;20.290;2023-10-08T13:06:57;99384.69;;;12.84;60.38
34235;BME280;20500;49.856;20.290;2023-10-08T13:10:05;99394.73;;;12.81;60.40
34235;BME280;20500;49.856;20.290;2023-10-08T13:13:09;99397.27;;;12.87;60.31
34235;BME280;20500;49.856;20.290;2023-10-08T13:16:15;99393.56;;;12.82;59.60
34235;BME280;20500;49.856;20.290;2023-10-08T13:19:19;99394.36;;;12.59;58.99
34235;BME280;20500;49.856;20.290;2023-10-08T13:22:23;99399.35;;;12.45;58.81
34235;BME280;20500;49.856;20.290;2023-10-08T13:25:27;99397.80;;;12.37;58.59
34235;BME280;20500;49.856;20.290;2023-10-08T13:28:33;99399.44;;;12.29;58.52
34235;BME280;20500;49.856;20.290;2023-10-08T13:31:37;99403.02;;;12.25;58.47
34235;BME280;20500;49.856;20.290;2023-10-08T13:34:41;99409.77;;;12.31;58.61
34235;BME280;20500;49.856;20.290;2023-10-08T13:37:46;99418.30;;;12.45;58.60
34235;BME280;20500;49.856;20.290;2023-10-08T13:40:51;99421.46;;;12.56;58.69
34235;BME280;20500;49.856;20.290;2023-10-08T13:44:06;99426.67;;;12.46;57.57
34235;BME280;20500;49.856;20.290;2023-10-08T13:47:10;99428.41;;;12.21;57.38
34235;BME280;20500;49.856;20.290;2023-10-08T13:50:18;99433.30;;;12.08;57.48
34235;BME280;20500;49.856;20.290;2023-10-08T13:53:24;99438.94;;;11.86;57.27
34235;BME280;20500;49.856;20.290;2023-10-08T13:56:32;99441.36;;;11.73;57.45
34235;BME280;20500;49.856;20.290;2023-10-08T13:59:36;99444.06;;;11.72;57.27
34235;BME280;20500;49.856;20.290;2023-10-08T14:02:41;99448.87;;;11.65;56.89
34235;BME280;20500;49.856;20.290;2023-10-08T14:05:47;99450.02;;;11.61;57.00
34235;BME280;20500;49.856;20.290;2023-10-08T14:08:53;99451.95;;;11.63;57.06
34235;BME280;20500;49.856;20.290;2023-10-08T14:11:57;99455.16;;;11.73;57.04
34235;BME280;20500;49.856;20.290;2023-10-08T14:15:03;99462.30;;;11.81;57.18
34235;BME280;20500;49.856;20.290;2023-10-08T14:18:09;99466.95;;;11.85;56.80
34235;BME280;20500;49.856;20.290;2023-10-08T14:21:17;99472.38;;;11.91;56.84
34235;BME280;20500;49.856;20.290;2023-10-08T14:24:21;99470.83;;;11.98;56.71
34235;BME280;20500;49.856;20.290;2023-10-08T14:27:26;99473.28;;;11.97;56.50
34235;BME280;20500;49.856;20.290;2023-10-08T14:30:35;99473.07;;;11.95;56.52
34235;BME280;20500;49.856;20.290;2023-10-08T14:33:44;99477.97;;;11.92;56.46
34235;BME280;20500;49.856;20.290;2023-10-08T14:36:58;99482.15;;;11.87;56.22
34235;BME280;20500;49.856;20.290;2023-10-08T14:40:20;99477.15;;;11.85;56.32
34235;BME280;20500;49.856;20.290;2023-10-08T14:43:41;99475.79;;;11.84;56.34
34235;BME280;20500;49.856;20.290;2023-10-08T14:46:46;99478.00;;;11.84;56.04
34235;BME280;20500;49.856;20.290;2023-10-08T14:49:50;99484.66;;;11.78;55.90
34235;BME280;20500;49.856;20.290;2023-10-08T14:52:54;99494.72;;;11.66;55.73
34235;BME280;20500;49.856;20.290;2023-10-08T14:55:58;99497.79;;;11.62;55.92
34235;BME280;20500;49.856;20.290;2023-10-08T14:59:03;99502.30;;;11.61;55.69
34235;BME280;20500;49.856;20.290;2023-10-08T15:02:07;99509.59;;;11.58;55.48
34235;BME280;20500;49.856;20.290;2023-10-08T15:05:13;99517.45;;;11.46;55.41
34235;BME280;20500;49.856;20.290;2023-10-08T15:08:17;99521.22;;;11.38;55.32
34235;BME280;20500;49.856;20.290;2023-10-08T15:11:21;99529.32;;;11.33;55.60
34235;BME280;20500;49.856;20.290;2023-10-08T15:14:25;99534.21;;;11.30;55.50
34235;BME280;20500;49.856;20.290;2023-10-08T15:17:30;99543.56;;;11.26;55.47
34235;BME280;20500;49.856;20.290;2023-10-08T15:20:37;99547.89;;;11.21;55.57
34235;BME280;20500;49.856;20.290;2023-10-08T15:23:45;99551.24;;;11.14;55.47
34235;BME280;20500;49.856;20.290;2023-10-08T15:26:49;99552.29;;;11.07;55.59
34235;BME280;20500;49.856;20.290;2023-10-08T15:29:55;99551.87;;;10.99;55.59
34235;BME280;20500;49.856;20.290;2023-10-08T15:32:59;99559.42;;;10.92;55.63
34235;BME280;20500;49.856;20.290;2023-10-08T15:36:03;99564.48;;;10.81;55.65
34235;BME280;20500;49.856;20.290;2023-10-08T15:39:07;99568.33;;;10.70;55.55
34235;BME280;20500;49.856;20.290;2023-10-08T15:42:14;99570.43;;;10.65;55.50
34235;BME280;20500;49.856;20.290;2023-10-08T15:45:21;99573.37;;;10.60;55.62
34235;BME280;20500;49.856;20.290;2023-10-08T15:48:25;99580.45;;;10.55;55.93
34235;BME280;20500;49.856;20.290;2023-10-08T15:51:32;99589.02;;;10.51;55.99
34235;BME280;20500;49.856;20.290;2023-10-08T15:54:36;99592.76;;;10.45;55.93
34235;BME280;20500;49.856;20.290;2023-10-08T15:57:41;99597.89;;;10.38;56.12
34235;BME280;20500;49.856;20.290;2023-10-08T16:00:45;99605.16;;;10.26;55.95
34235;BME280;20500;49.856;20.290;2023-10-08T16:03:49;99610.39;;;10.15;55.97
34235;BME280;20500;49.856;20.290;2023-10-08T16:06:53;99621.20;;;10.03;55.89
34235;BME280;20500;49.856;20.290;2023-10-08T16:09:57;99634.17;;;9.92;55.96
34235;BME280;20500;49.856;20.290;2023-10-08T16:13:01;99643.21;;;9.81;55.98
34235;BME280;20500;49.856;20.290;2023-10-08T16:16:07;99646.06;;;9.74;56.05
34235;BME280;20500;49.856;20.290;2023-10-08T16:19:12;99649.45;;;9.68;55.85
34235;BME280;20500;49.856;20.290;2023-10-08T16:22:16;99657.40;;;9.58;55.70